McCook, NE

6:47 AM CST on December 09, 2016 (GMT -0600)
KNEMCCOO2 | | Change Station

Elev 2609 ft 40.21 °N, 100.64 °W | Updated 28 seconds ago

Overcast
Overcast
14.2 °F
Feels Like 8 °F
N
4.0
Wind Variable Wind from NNE
Gusts 4.0 mph

Today
High -- | Low -- °F
--% Chance of Precip.
Yesterday
High -- | Low -- °F
Precip. -- in
Pressure 30.53 in
Visibility 10.0 miles
Clouds Overcast 4500 ft
Windchill 8 °F
Dew Point 7 °F
Humidity 73%
Rainfall 0.00 in
Snow Depth Not available.
7:53 AM 5:16 PM
Waxing Gibbous, 73% visible
METAR KMCK 091153Z AUTO 08004KT 10SM OVC045 M13/M16 A3038 RMK AO2 SLP338 T11281161 11128 21183 56026
Pressure 30.53 in
Visibility 10.0 miles
Clouds Overcast 4500 ft
Windchill 8 °F
Dew Point 7 °F
Humidity 73%
Rainfall 0.00 in
Snow Depth Not available.
7:53 AM 5:16 PM
Waxing Gibbous, 73% visible
METAR KMCK 091153Z AUTO 08004KT 10SM OVC045 M13/M16 A3038 RMK AO2 SLP338 T11281161 11128 21183 56026

10-Day Weather Forecast

Almanac

Astronomy

Dec. 09, 2016 Rise Set
Actual Time
Civil Twilight
Nautical Twilight
Astronomical Twilight
Moon
Length of Visible Light
Length of Day
Tomorrow will be .
, % of the Moon is Illuminated

Today's Extremes

State Highs State Lows

Community

WunderPhotos

Upload Photos

1,956,407 photos uploaded!

WunderBlog® & News

Nearby

Air Quality

  Air Quality AQ Index Pollutant
Not available.

Snow Depth

Station Depth Elevation

Earthquake Activity

City Distance Mag. Time & Date
Minimum magnitude displayed is 2.5.

Coastal Water Temperatures

Place Temperature

Stations

Nearby Weather Stations

Station Location Temp. Windchill Dew Point Humidity Wind Precip. Elev Updated Type
                   

Watches & Warnings

There are currently no watches in effect.